createdAt,value
2022-08-29T00:02:56.778Z,22.75
2022-08-29T00:08:01.260Z,22.77
2022-08-29T00:13:04.538Z,22.82
2022-08-29T00:18:08.239Z,22.68
2022-08-29T00:23:11.529Z,22.72
2022-08-29T00:28:14.035Z,22.71
2022-08-29T00:33:16.351Z,22.48
2022-08-29T00:38:19.303Z,22.44
2022-08-29T00:43:25.200Z,22.52
2022-08-29T00:48:27.224Z,22.40
2022-08-29T00:53:40.959Z,22.40
2022-08-29T00:58:47.865Z,22.32
2022-08-29T01:03:51.140Z,22.31
2022-08-29T01:08:57.318Z,22.31
2022-08-29T01:14:01.213Z,22.33
2022-08-29T01:19:10.920Z,22.44
2022-08-29T01:24:16.040Z,22.37
2022-08-29T01:29:18.627Z,22.44
2022-08-29T01:34:20.979Z,22.42
2022-08-29T01:39:26.584Z,22.28
2022-08-29T01:44:28.559Z,22.37
2022-08-29T01:49:35.897Z,22.37
2022-08-29T01:54:41.979Z,22.20
2022-08-29T01:59:44.084Z,22.17
2022-08-29T02:04:47.389Z,22.01
2022-08-29T02:09:49.400Z,21.89
2022-08-29T02:14:51.627Z,21.90
2022-08-29T02:19:53.712Z,21.84
2022-08-29T02:24:55.933Z,21.78
2022-08-29T02:29:57.943Z,21.68
2022-08-29T02:35:00.544Z,21.82
2022-08-29T02:40:03.092Z,21.95
2022-08-29T02:45:05.809Z,21.97
2022-08-29T02:50:10.195Z,22.10
2022-08-29T02:55:15.675Z,22.23
2022-08-29T03:00:25.490Z,22.27
2022-08-29T03:05:30.439Z,22.40
2022-08-29T03:10:32.977Z,22.48
2022-08-29T03:15:35.260Z,22.46
2022-08-29T03:20:38.204Z,22.65
2022-08-29T03:25:40.208Z,22.64
2022-08-29T03:30:42.849Z,22.73
2022-08-29T03:35:45.040Z,22.75
2022-08-29T03:40:47.316Z,22.84
2022-08-29T03:45:52.220Z,22.80
2022-08-29T03:50:56.412Z,22.81
2022-08-29T03:55:58.662Z,22.82
2022-08-29T04:01:01.291Z,22.86
2022-08-29T04:06:03.711Z,22.88
2022-08-29T04:11:10.993Z,22.80
2022-08-29T04:16:15.079Z,22.99
2022-08-29T04:21:18.654Z,23.14
2022-08-29T04:26:37.452Z,23.17
2022-08-29T04:31:40.926Z,23.20
2022-08-29T04:36:45.323Z,23.08
2022-08-29T04:41:47.348Z,23.10
2022-08-29T04:46:49.586Z,22.99
2022-08-29T04:51:52.971Z,23.02
2022-08-29T04:56:55.577Z,23.00
2022-08-29T05:01:59.878Z,22.61
2022-08-29T05:07:02.361Z,22.34
2022-08-29T05:12:09.657Z,22.44
2022-08-29T05:17:12.233Z,22.40
2022-08-29T05:22:15.104Z,22.41
2022-08-29T05:27:20.325Z,22.28
2022-08-29T05:32:22.405Z,21.98
2022-08-29T05:37:24.826Z,22.26
2022-08-29T05:42:27.690Z,22.20
2022-08-29T05:47:31.517Z,22.35
2022-08-29T05:52:33.941Z,22.31
2022-08-29T05:57:36.275Z,22.64
2022-08-29T06:02:38.552Z,22.55
2022-08-29T06:07:40.939Z,22.76
2022-08-29T06:12:43.084Z,22.48
2022-08-29T06:17:45.020Z,22.52
2022-08-29T06:22:47.124Z,22.68
2022-08-29T06:27:49.141Z,22.71
2022-08-29T06:32:51.161Z,22.96
2022-08-29T06:37:53.563Z,23.05
2022-08-29T06:42:55.605Z,22.90
2022-08-29T06:47:57.537Z,23.11
2022-08-29T06:53:14.543Z,23.06
2022-08-29T06:58:21.710Z,23.47
2022-08-29T07:03:23.958Z,24.00
2022-08-29T07:08:26.145Z,23.82
2022-08-29T07:13:28.314Z,23.45
2022-08-29T07:18:30.254Z,23.83
2022-08-29T07:23:32.289Z,23.89
2022-08-29T07:28:35.000Z,23.64
2022-08-29T07:33:40.577Z,24.06
2022-08-29T07:38:42.705Z,24.04
2022-08-29T07:43:45.003Z,23.98
2022-08-29T07:48:47.405Z,23.52
2022-08-29T07:53:50.527Z,23.66
2022-08-29T07:58:53.743Z,23.76
2022-08-29T08:03:56.251Z,23.62
2022-08-29T08:09:00.052Z,23.90
2022-08-29T08:14:03.312Z,23.87
2022-08-29T08:19:07.521Z,23.89
2022-08-29T08:24:10.042Z,23.22
2022-08-29T08:29:13.191Z,22.97
2022-08-29T08:34:16.875Z,22.48
2022-08-29T08:39:19.045Z,22.44
2022-08-29T08:44:28.357Z,22.39
2022-08-29T08:49:42.577Z,22.31
2022-08-29T08:54:51.993Z,22.19
2022-08-29T08:59:57.741Z,22.75
2022-08-29T09:05:22.278Z,22.91
2022-08-29T09:10:37.045Z,23.25
2022-08-29T09:15:48.449Z,23.55
2022-08-29T09:20:53.026Z,23.51
2022-08-29T09:25:56.345Z,23.96
2022-08-29T09:31:23.109Z,24.33
2022-08-29T09:36:46.026Z,24.35
2022-08-29T09:41:55.552Z,23.51
2022-08-29T09:47:09.055Z,24.38
2022-08-29T09:52:24.858Z,25.04
2022-08-29T09:57:28.457Z,24.11
2022-08-29T10:02:33.166Z,25.08
2022-08-29T10:07:46.738Z,24.74
2022-08-29T10:13:08.485Z,25.21
2022-08-29T10:18:24.516Z,24.92
2022-08-29T10:23:37.412Z,24.39
2022-08-29T10:28:55.791Z,24.13
2022-08-29T10:34:28.220Z,24.38
2022-08-29T10:40:10.890Z,24.32
2022-08-29T10:45:30.840Z,24.25
2022-08-29T10:50:44.748Z,24.42
2022-08-29T10:56:12.095Z,24.25
2022-08-29T11:01:23.067Z,24.34
2022-08-29T11:07:17.893Z,25.13
2022-08-29T11:12:47.187Z,24.72
2022-08-29T11:17:57.132Z,25.49
2022-08-29T11:23:12.868Z,25.52
2022-08-29T11:28:41.122Z,25.97
2022-08-29T11:33:56.885Z,25.88
2022-08-29T11:39:04.836Z,25.05
2022-08-29T11:44:33.311Z,25.00
2022-08-29T11:49:39.015Z,24.58
2022-08-29T11:54:45.304Z,24.77
2022-08-29T11:59:48.564Z,24.36
2022-08-29T12:05:10.007Z,24.75
2022-08-29T12:10:32.685Z,24.65
2022-08-29T12:15:35.541Z,24.69
2022-08-29T12:20:40.145Z,24.65
2022-08-29T12:25:55.163Z,24.59
2022-08-29T12:31:35.824Z,24.64
2022-08-29T12:36:57.197Z,24.89
2022-08-29T12:42:37.996Z,25.31
2022-08-29T12:47:45.979Z,25.75
2022-08-29T12:53:16.108Z,25.91
2022-08-29T12:58:36.576Z,25.92
2022-08-29T13:03:38.696Z,26.12
2022-08-29T13:08:41.283Z,25.82
2022-08-29T13:13:43.369Z,25.68
2022-08-29T13:19:07.404Z,25.07
2022-08-29T13:24:19.685Z,24.35
2022-08-29T13:35:15.287Z,25.77
2022-08-29T13:40:28.871Z,26.24
2022-08-29T13:45:31.019Z,25.65
2022-08-29T13:50:33.083Z,25.57
2022-08-29T13:55:35.393Z,25.68
2022-08-29T14:00:39.516Z,25.63
2022-08-29T14:05:41.992Z,25.39
2022-08-29T14:10:44.236Z,24.84
2022-08-29T14:15:46.850Z,25.13
2022-08-29T14:20:49.166Z,25.28
2022-08-29T14:25:51.267Z,25.47
2022-08-29T14:30:53.621Z,25.60
2022-08-29T14:35:56.148Z,25.51
2022-08-29T14:40:59.363Z,25.49
2022-08-29T14:46:01.414Z,25.53
2022-08-29T14:51:03.944Z,25.31
2022-08-29T14:56:06.366Z,25.34
2022-08-29T15:01:09.764Z,25.40
2022-08-29T15:06:13.578Z,25.33
2022-08-29T15:11:15.629Z,25.33
2022-08-29T15:16:17.953Z,25.22
2022-08-29T15:21:26.138Z,25.40
2022-08-29T15:26:28.845Z,25.62
2022-08-29T15:31:31.282Z,25.53
2022-08-29T15:36:34.502Z,25.64
2022-08-29T15:41:37.080Z,25.36
2022-08-29T15:46:39.111Z,25.36
2022-08-29T15:51:53.337Z,25.42
2022-08-29T15:56:55.329Z,25.19
2022-08-29T16:01:57.470Z,25.12
2022-08-29T16:06:59.557Z,25.29
2022-08-29T16:12:01.559Z,25.09
2022-08-29T16:17:05.039Z,25.28
2022-08-29T16:22:08.023Z,25.30
2022-08-29T16:27:10.556Z,25.03
2022-08-29T16:32:12.532Z,24.97
2022-08-29T16:37:14.874Z,24.63
2022-08-29T16:42:17.468Z,24.48
2022-08-29T16:47:19.405Z,24.24
2022-08-29T16:52:21.429Z,24.21
2022-08-29T16:57:23.475Z,24.14
2022-08-29T17:02:25.716Z,23.99
2022-08-29T17:07:33.405Z,23.86
2022-08-29T17:12:35.505Z,23.68
2022-08-29T17:17:37.512Z,23.41
2022-08-29T17:22:39.511Z,23.26
2022-08-29T17:27:55.472Z,23.05
2022-08-29T17:33:05.593Z,22.83
2022-08-29T17:38:08.538Z,22.60
2022-08-29T17:43:12.949Z,22.50
2022-08-29T17:48:15.514Z,22.33
2022-08-29T17:53:19.347Z,22.17
2022-08-29T17:58:22.130Z,21.96
2022-08-29T18:03:24.998Z,21.81
2022-08-29T18:08:26.946Z,21.67
2022-08-29T18:13:29.097Z,21.58
2022-08-29T18:18:31.727Z,21.43
2022-08-29T18:23:34.090Z,21.34
2022-08-29T18:28:36.448Z,21.27
2022-08-29T18:33:57.356Z,21.21
2022-08-29T18:39:02.191Z,21.09
2022-08-29T18:44:05.226Z,21.03
2022-08-29T18:49:07.960Z,20.96
2022-08-29T18:54:18.754Z,20.90
2022-08-29T18:59:23.580Z,20.86
2022-08-29T19:04:25.641Z,20.62
2022-08-29T19:09:27.614Z,20.63
2022-08-29T19:14:30.195Z,20.51
2022-08-29T19:19:52.727Z,20.47
2022-08-29T19:24:58.537Z,20.42
2022-08-29T19:30:15.373Z,20.34
2022-08-29T19:35:28.713Z,20.26
2022-08-29T19:40:35.663Z,20.15
2022-08-29T19:45:42.910Z,20.07
2022-08-29T19:50:47.764Z,19.99
2022-08-29T19:55:50.001Z,19.97
2022-08-29T20:00:52.562Z,19.88
2022-08-29T20:05:56.460Z,19.79
2022-08-29T20:10:58.660Z,19.68
2022-08-29T20:16:00.939Z,19.68
2022-08-29T20:21:03.034Z,19.65
2022-08-29T20:26:05.379Z,19.60
2022-08-29T20:31:07.758Z,19.48
2022-08-29T20:36:28.153Z,19.45
2022-08-29T20:41:31.346Z,19.37
2022-08-29T20:46:38.071Z,19.35
2022-08-29T20:51:44.525Z,19.27
2022-08-29T20:56:46.816Z,19.21
2022-08-29T21:01:52.742Z,19.16
2022-08-29T21:07:07.173Z,19.12
2022-08-29T21:12:11.529Z,19.10
2022-08-29T21:17:14.897Z,19.03
2022-08-29T21:22:18.954Z,18.95
2022-08-29T21:27:24.041Z,18.97
2022-08-29T21:32:26.108Z,18.98
2022-08-29T21:37:28.418Z,18.93
2022-08-29T21:42:31.090Z,18.92
2022-08-29T21:47:39.278Z,18.89
2022-08-29T21:52:42.841Z,18.81
2022-08-29T21:57:51.931Z,18.84
2022-08-29T22:02:54.360Z,18.84
2022-08-29T22:08:01.365Z,18.69
2022-08-29T22:13:06.489Z,18.73
2022-08-29T22:18:12.778Z,18.68
2022-08-29T22:23:17.509Z,18.64
2022-08-29T22:28:22.932Z,18.56
2022-08-29T22:33:24.856Z,18.56
2022-08-29T22:38:26.830Z,18.51
2022-08-29T22:43:28.957Z,18.47
2022-08-29T22:48:30.908Z,18.41
2022-08-29T22:53:33.010Z,18.40
2022-08-29T22:58:36.599Z,18.37
2022-08-29T23:03:38.775Z,18.30
2022-08-29T23:08:40.779Z,18.26
2022-08-29T23:13:43.816Z,18.22
2022-08-29T23:18:46.555Z,18.19
2022-08-29T23:23:49.576Z,18.13
2022-08-29T23:28:51.943Z,18.13
2022-08-29T23:33:54.579Z,18.05
2022-08-29T23:38:56.596Z,18.02
2022-08-29T23:43:59.197Z,17.98
2022-08-29T23:49:01.231Z,17.96
2022-08-29T23:54:03.450Z,17.90
2022-08-29T23:59:05.527Z,17.91
